Terminal Aerodrome Forecast
Issued by NWS Charleston, WV

Current Version | Previous Version | Text Only | Print | Product List | Glossary Off
Versions: 1 2 3 4 5 6 7 8 9 10 11 12 13 14 15 16 17 18 19 20 21

000
FTUS41 KRLX 130200 AAA
TAFEKN
TAF AMD
KEKN 130234Z 1303/1324 VRB03KT P6SM SCT100
     FM130500 00000KT 5SM BR SCT090
     FM130800 18004KT 4SM BR BKN080
     FM131400 23008G20KT P6SM BKN035 BKN100
     FM132300 24008KT 5SM TSRA BR BKN035CB BKN080=

USA.gov is the U.S. government's official web portal to all federal, state and local government web resources and services.